Terminal Aerodrome Forecast
Issued by NWS

Current Version | Previous Version | Text Only | Print | Product List | Glossary On
Versions: 1 2 3 4 5 6 7 8 9 10 11 12 13 14 15 16 17 18 19 20 21 22 23 24 25 26 27 28 29 30 31 32 33
000
FTUS45 KSLC 051803 AAA
TAFPVU
TAF AMD
KPVU 051803Z 0518/0618 20007KT P6SM VCSH SCT060 BKN080
      TEMPO 0518/0519 VRB15G25KT -TSRA BKN060CB
     FM060300 VRB05KT P6SM SCT080 BKN110
      AMD LTD TO CLD VIS AND WIND=

USA.gov is the U.S. government's official web portal to all federal, state and local government web resources and services.